MIG2 KLSV-
Flight info
| Callsign | MIG2 |
|---|---|
| Flight time | N/A |
| Altitude | 20000 |
| Route | FYTTR4 FYTTR |
| Aircraft | T38/L-VGD/C |
Departure
| Time | 2026-04-25 02:41 |
|---|---|
| Airport | Nellis Air Force Base (KLSV) |
Arrival
| Time | N/A |
|---|---|
| Airport | - |
| Time | Latitude | Longitude | Altitude | Speed | Heading |
|---|---|---|---|---|---|
| 2026-04-25 02:38 | 36.24625 | -115.03134 | 1866 ft | 19 kts | 0° |
| 2026-04-25 02:39 | 36.24726 | -115.03069 | 1868 ft | 11 kts | 84° |
| 2026-04-25 02:39 | 36.24726 | -115.02945 | 1865 ft | 23 kts | 91° |
| 2026-04-25 02:39 | 36.24719 | -115.02718 | 1861 ft | 25 kts | 92° |
| 2026-04-25 02:39 | 36.24674 | -115.02552 | 1863 ft | 18 kts | 166° |
| 2026-04-25 02:40 | 36.24596 | -115.02586 | 1862 ft | 1 kts | 222° |
| 2026-04-25 02:40 | 36.24311 | -115.02898 | 1861 ft | 105 kts | 221° |
| 2026-04-25 02:40 | 36.23506 | -115.03756 | 1850 ft | 186 kts | 221° |
| 2026-04-25 02:40 | 36.22297 | -115.05021 | 2387 ft | 244 kts | 218° |
| 2026-04-25 02:41 | 36.21122 | -115.06685 | 3396 ft | 267 kts | 259° |
| 2026-04-25 02:41 | 36.21790 | -115.08918 | 4319 ft | 315 kts | 315° |
| 2026-04-25 02:41 | 36.23561 | -115.10738 | 5125 ft | 344 kts | 315° |
| 2026-04-25 02:41 | 36.25350 | -115.12646 | 7350 ft | 340 kts | 316° |
| 2026-04-25 02:42 | 36.27227 | -115.14668 | 8830 ft | 362 kts | 315° |
| 2026-04-25 02:42 | 36.29278 | -115.16547 | 10337 ft | 378 kts | 333° |
| 2026-04-25 02:42 | 36.31831 | -115.17850 | 11184 ft | 406 kts | 336° |
| 2026-04-25 02:42 | 36.34542 | -115.18664 | 12196 ft | 406 kts | 353° |
| 2026-04-25 02:43 | 36.37385 | -115.18895 | 12737 ft | 411 kts | 354° |
| 2026-04-25 02:43 | 36.40257 | -115.19022 | 13327 ft | 411 kts | 356° |
| 2026-04-25 02:43 | 36.43094 | -115.19054 | 14244 ft | 402 kts | 357° |
| 2026-04-25 02:43 | 36.45866 | -115.19030 | 15066 ft | 399 kts | 358° |
| 2026-04-25 02:44 | 36.48652 | -115.18541 | 15242 ft | 414 kts | 13° |
| 2026-04-25 02:44 | 36.51474 | -115.17389 | 15319 ft | 428 kts | 15° |
| 2026-04-25 02:44 | 36.54346 | -115.16210 | 15434 ft | 438 kts | 15° |
| 2026-04-25 02:44 | 36.57243 | -115.15015 | 15790 ft | 443 kts | 15° |
| 2026-04-25 02:45 | 36.60152 | -115.13837 | 16017 ft | 449 kts | 14° |
| 2026-04-25 02:45 | 36.63162 | -115.12758 | 16411 ft | 449 kts | 13° |
| 2026-04-25 02:45 | 36.66152 | -115.11653 | 17026 ft | 445 kts | 14° |
| 2026-04-25 02:45 | 36.69102 | -115.10578 | 17764 ft | 437 kts | 11° |
| 2026-04-25 02:46 | 36.72120 | -115.09666 | 17633 ft | 452 kts | 7° |
| 2026-04-25 02:46 | 36.75262 | -115.09265 | 17665 ft | 455 kts | 0° |
| 2026-04-25 02:46 | 36.78401 | -115.08948 | 17922 ft | 454 kts | 2° |
| 2026-04-25 02:46 | 36.81581 | -115.08462 | 17639 ft | 465 kts | 4° |
| 2026-04-25 02:47 | 36.84780 | -115.08327 | 17932 ft | 451 kts | 353° |
| 2026-04-25 02:47 | 36.87940 | -115.08717 | 17610 ft | 463 kts | 351° |
| 2026-04-25 02:47 | 36.91157 | -115.08935 | 17696 ft | 465 kts | 0° |
| 2026-04-25 02:47 | 36.94392 | -115.08901 | 17315 ft | 471 kts | 359° |
| 2026-04-25 02:48 | 36.97686 | -115.08926 | 17628 ft | 461 kts | 355° |
| 2026-04-25 02:48 | 37.00872 | -115.09335 | 17776 ft | 461 kts | 350° |
| 2026-04-25 02:48 | 37.04106 | -115.09866 | 17288 ft | 471 kts | 349° |
| 2026-04-25 02:48 | 37.07232 | -115.09378 | 17481 ft | 467 kts | 33° |
| 2026-04-25 02:49 | 37.09795 | -115.06920 | 17707 ft | 455 kts | 15° |
| 2026-04-25 02:49 | 37.12844 | -115.06786 | 17924 ft | 440 kts | 351° |
| 2026-04-25 02:49 | 37.15342 | -115.05380 | 18055 ft | 425 kts | 78° |
| 2026-04-25 02:49 | 37.14090 | -115.02740 | 18346 ft | 360 kts | 195° |
| 2026-04-25 02:50 | 37.13697 | -115.04626 | 17082 ft | 304 kts | 353° |
| 2026-04-25 02:50 | 37.14221 | -115.02774 | 14804 ft | 310 kts | 170° |
| 2026-04-25 02:50 | 37.13174 | -115.04305 | 14147 ft | 302 kts | 293° |
| 2026-04-25 02:50 | 37.15022 | -115.05711 | 14080 ft | 353 kts | 346° |
| 2026-04-25 02:51 | 37.17502 | -115.06141 | 14139 ft | 399 kts | 350° |
| 2026-04-25 02:51 | 37.20272 | -115.06737 | 14801 ft | 424 kts | 345° |
| 2026-04-25 02:51 | 37.23293 | -115.07698 | 14949 ft | 472 kts | 344° |
| 2026-04-25 02:51 | 37.26553 | -115.07404 | 15285 ft | 500 kts | 34° |
| 2026-04-25 02:52 | 37.29572 | -115.05416 | 15763 ft | 493 kts | 339° |
| 2026-04-25 02:52 | 37.32945 | -115.06397 | 16002 ft | 520 kts | 352° |
| 2026-04-25 02:52 | 37.36224 | -115.07793 | 16003 ft | 498 kts | 287° |
| 2026-04-25 02:52 | 37.38503 | -115.10432 | 15003 ft | 508 kts | 40° |
| 2026-04-25 02:53 | 37.38929 | -115.06254 | 14940 ft | 502 kts | 62° |
| 2026-04-25 02:53 | 37.41393 | -115.06399 | 15738 ft | 369 kts | 336° |
| 2026-04-25 02:53 | 37.42121 | -115.07988 | 13496 ft | 350 kts | 306° |
| 2026-04-25 02:53 | 37.43542 | -115.08141 | 10965 ft | 104 kts | 172° |
| 2026-04-25 02:54 | 37.42042 | -115.07606 | 10415 ft | 250 kts | 64° |
| 2026-04-25 02:54 | 37.43169 | -115.06773 | 12666 ft | 130 kts | 30° |
| 2026-04-25 02:54 | 37.43660 | -115.06251 | 9833 ft | 151 kts | 268° |
| 2026-04-25 02:54 | 37.44932 | -115.06635 | 8570 ft | 284 kts | 92° |
| 2026-04-25 02:55 | 37.43942 | -115.06938 | 7249 ft | 218 kts | 290° |
| 2026-04-25 02:55 | 37.43775 | -115.08479 | 8124 ft | 250 kts | 179° |
| 2026-04-25 02:55 | 37.43444 | -115.06951 | 7873 ft | 268 kts | 7° |
| 2026-04-25 02:55 | 37.43782 | -115.05562 | 6464 ft | 278 kts | 189° |
| 2026-04-25 02:56 | 37.43704 | -115.06884 | 7859 ft | 173 kts | 347° |
| 2026-04-25 02:56 | 37.44712 | -115.07749 | 9421 ft | 211 kts | 282° |
| 2026-04-25 02:56 | 37.44544 | -115.09607 | 10480 ft | 226 kts | 254° |
| 2026-04-25 02:56 | 37.44104 | -115.11567 | 12086 ft | 244 kts | 252° |
| 2026-04-25 02:57 | 37.43542 | -115.13765 | 13324 ft | 279 kts | 250° |
| 2026-04-25 02:57 | 37.42438 | -115.15834 | 14747 ft | 298 kts | 216° |
| 2026-04-25 02:57 | 37.40395 | -115.16404 | 16016 ft | 337 kts | 159° |
| 2026-04-25 02:57 | 37.38477 | -115.14312 | 16217 ft | 407 kts | 127° |
| 2026-04-25 02:58 | 37.36495 | -115.11376 | 16205 ft | 466 kts | 134° |
| 2026-04-25 02:58 | 37.34239 | -115.08164 | 16306 ft | 512 kts | 132° |
| 2026-04-25 02:58 | 37.31862 | -115.04811 | 16446 ft | 496 kts | 133° |
| 2026-04-25 02:58 | 37.29717 | -115.01568 | 16212 ft | 457 kts | 130° |
| 2026-04-25 02:59 | 37.27745 | -114.98406 | 16368 ft | 484 kts | 132° |
| 2026-04-25 02:59 | 37.25370 | -114.95082 | 16356 ft | 530 kts | 136° |
| 2026-04-25 02:59 | 37.22502 | -114.91826 | 15712 ft | 580 kts | 144° |
| 2026-04-25 02:59 | 37.19056 | -114.88871 | 15094 ft | 619 kts | 150° |
| 2026-04-25 03:00 | 37.15299 | -114.85957 | 14092 ft | 643 kts | 149° |
| 2026-04-25 03:00 | 37.11528 | -114.82838 | 14211 ft | 659 kts | 147° |
| 2026-04-25 03:00 | 37.07833 | -114.79567 | 13876 ft | 615 kts | 145° |
| 2026-04-25 03:00 | 37.04770 | -114.76436 | 15091 ft | 564 kts | 142° |
| 2026-04-25 03:01 | 37.01792 | -114.73122 | 14451 ft | 569 kts | 137° |
| 2026-04-25 03:01 | 36.99466 | -114.69633 | 14787 ft | 474 kts | 129° |
| 2026-04-25 03:01 | 36.97185 | -114.67032 | 14116 ft | 450 kts | 159° |
| 2026-04-25 03:01 | 36.94803 | -114.68598 | 12678 ft | 487 kts | 249° |
| 2026-04-25 03:02 | 36.92859 | -114.72035 | 11923 ft | 495 kts | 212° |
| 2026-04-25 03:02 | 36.89611 | -114.73490 | 11305 ft | 500 kts | 201° |
| 2026-04-25 03:02 | 36.86308 | -114.75213 | 10533 ft | 516 kts | 209° |
| 2026-04-25 03:02 | 36.83104 | -114.76933 | 9719 ft | 483 kts | 193° |
| 2026-04-25 03:03 | 36.80281 | -114.77672 | 9401 ft | 366 kts | 195° |
| 2026-04-25 03:03 | 36.78093 | -114.78934 | 8232 ft | 342 kts | 224° |
| 2026-04-25 03:03 | 36.76829 | -114.81418 | 7629 ft | 355 kts | 253° |
| 2026-04-25 03:03 | 36.76210 | -114.84491 | 7397 ft | 369 kts | 254° |
| 2026-04-25 03:04 | 36.75477 | -114.87630 | 6798 ft | 389 kts | 251° |
| 2026-04-25 03:04 | 36.74109 | -114.90624 | 5880 ft | 415 kts | 220° |
| 2026-04-25 03:04 | 36.71461 | -114.92180 | 5258 ft | 432 kts | 201° |
| 2026-04-25 03:05 | 36.66436 | -114.92758 | 4747 ft | 310 kts | 180° |
| 2026-04-25 03:05 | 36.64205 | -114.92613 | 4655 ft | 331 kts | 175° |
| 2026-04-25 03:05 | 36.61872 | -114.92217 | 4603 ft | 339 kts | 173° |
| 2026-04-25 03:05 | 36.59616 | -114.91926 | 4144 ft | 329 kts | 197° |
| 2026-04-25 03:06 | 36.57462 | -114.92829 | 4226 ft | 313 kts | 195° |
| 2026-04-25 03:06 | 36.55295 | -114.93188 | 4244 ft | 318 kts | 185° |
| 2026-04-25 03:06 | 36.53123 | -114.93741 | 3904 ft | 323 kts | 201° |
| 2026-04-25 03:06 | 36.50880 | -114.94110 | 4130 ft | 310 kts | 185° |
| 2026-04-25 03:07 | 36.48711 | -114.94394 | 3915 ft | 317 kts | 191° |
| 2026-04-25 03:07 | 36.46494 | -114.94934 | 3939 ft | 315 kts | 191° |
| 2026-04-25 03:07 | 36.44344 | -114.94938 | 3913 ft | 319 kts | 167° |
| 2026-04-25 03:07 | 36.42191 | -114.94091 | 4044 ft | 314 kts | 164° |
| 2026-04-25 03:08 | 36.40135 | -114.93361 | 4407 ft | 307 kts | 167° |
| 2026-04-25 03:08 | 36.38045 | -114.92648 | 4307 ft | 324 kts | 168° |
| 2026-04-25 03:08 | 36.35804 | -114.91857 | 4138 ft | 327 kts | 174° |
| 2026-04-25 03:08 | 36.33746 | -114.92332 | 3838 ft | 298 kts | 212° |
| 2026-04-25 03:09 | 36.32200 | -114.93918 | 3655 ft | 287 kts | 221° |
| 2026-04-25 03:09 | 36.31102 | -114.95034 | 3583 ft | 289 kts | 223° |
| 2026-04-25 03:09 | 36.29515 | -114.96840 | 3254 ft | 331 kts | 224° |
| 2026-04-25 03:09 | 36.27728 | -114.99155 | 3106 ft | 383 kts | 225° |
| 2026-04-25 03:10 | 36.25819 | -115.01134 | 3077 ft | 326 kts | 220° |
| 2026-04-25 03:10 | 36.24184 | -115.02918 | 3014 ft | 300 kts | 221° |
| 2026-04-25 03:10 | 36.23898 | -115.04787 | 2960 ft | 272 kts | 332° |
| 2026-04-25 03:10 | 36.25475 | -115.04039 | 2795 ft | 270 kts | 63° |
| 2026-04-25 03:11 | 36.26395 | -115.02244 | 2570 ft | 209 kts | 60° |
| 2026-04-25 03:11 | 36.26207 | -115.00829 | 2338 ft | 188 kts | 177° |
| 2026-04-25 03:11 | 36.25314 | -115.01665 | 1984 ft | 180 kts | 230° |
| 2026-04-25 03:11 | 36.24458 | -115.02721 | 1863 ft | 166 kts | 222° |
| 2026-04-25 03:12 | 36.23809 | -115.03438 | 1849 ft | 75 kts | 221° |
| 2026-04-25 03:12 | 36.23499 | -115.03785 | 1846 ft | 55 kts | 217° |
| 2026-04-25 03:12 | 36.23184 | -115.04114 | 1837 ft | 46 kts | 221° |
| 2026-04-25 03:12 | 36.22990 | -115.04323 | 1833 ft | 39 kts | 222° |
| 2026-04-25 03:13 | 36.22785 | -115.04552 | 1833 ft | 29 kts | 220° |
| 2026-04-25 03:13 | 36.22709 | -115.04730 | 1831 ft | 17 kts | 319° |